createdAt,value
2022-08-04T00:01:32.500Z,0.93
2022-08-04T00:04:06.848Z,0.98
2022-08-04T00:06:50.452Z,1.70
2022-08-04T00:09:31.299Z,0.85
2022-08-04T00:12:06.166Z,0.60
2022-08-04T00:14:38.606Z,1.40
2022-08-04T00:17:11.329Z,0.63
2022-08-04T00:19:47.276Z,0.80
2022-08-04T00:22:23.426Z,0.55
2022-08-04T00:24:54.393Z,0.85
2022-08-04T00:27:28.451Z,0.70
2022-08-04T00:29:59.933Z,0.93
2022-08-04T00:32:34.497Z,0.82
2022-08-04T00:35:06.239Z,0.65
2022-08-04T00:37:38.578Z,0.50
2022-08-04T00:40:25.673Z,0.70
2022-08-04T00:43:13.341Z,0.60
2022-08-04T00:46:18.911Z,0.70
2022-08-04T00:49:23.612Z,0.60
2022-08-04T00:52:32.143Z,0.80
2022-08-04T00:55:09.260Z,0.68
2022-08-04T00:58:19.082Z,0.80
2022-08-04T01:00:58.003Z,1.70
2022-08-04T01:03:45.917Z,0.60
2022-08-04T01:06:27.787Z,0.75
2022-08-04T01:09:09.205Z,0.60
2022-08-04T01:11:58.046Z,0.90
2022-08-04T01:14:50.684Z,1.00
2022-08-04T01:17:27.725Z,1.02
2022-08-04T01:20:07.089Z,1.00
2022-08-04T01:23:02.105Z,1.38
2022-08-04T01:26:42.691Z,0.77
2022-08-04T01:29:09.857Z,1.08
2022-08-04T01:32:05.040Z,1.10
2022-08-04T01:34:43.681Z,0.90
2022-08-04T01:37:31.778Z,0.80
2022-08-04T01:40:07.649Z,1.05
2022-08-04T01:42:40.182Z,1.30
2022-08-04T01:45:15.294Z,0.95
2022-08-04T01:47:53.694Z,1.10
2022-08-04T01:50:28.085Z,1.27
2022-08-04T01:52:59.672Z,1.23
2022-08-04T01:55:54.190Z,0.80
2022-08-04T01:58:27.121Z,0.93
2022-08-04T02:01:06.650Z,0.65
2022-08-04T02:04:18.839Z,0.40
2022-08-04T02:06:41.555Z,0.47
2022-08-04T02:09:20.130Z,0.50
2022-08-04T02:12:01.604Z,0.40
2022-08-04T02:14:47.076Z,0.40
2022-08-04T02:17:33.351Z,0.25
2022-08-04T02:20:10.496Z,0.20
2022-08-04T02:22:49.418Z,0.20
2022-08-04T02:25:26.966Z,0.20
2022-08-04T02:28:14.986Z,0.10
2022-08-04T02:30:53.919Z,0.47
2022-08-04T02:33:40.015Z,0.17
2022-08-04T02:36:14.218Z,0.30
2022-08-04T02:38:57.232Z,0.20
2022-08-04T02:41:30.008Z,0.20
2022-08-04T02:44:02.805Z,0.10
2022-08-04T02:46:35.044Z,0.20
2022-08-04T02:49:11.169Z,0.20
2022-08-04T02:51:45.137Z,0.30
2022-08-04T02:54:21.595Z,0.55
2022-08-04T02:57:08.087Z,0.28
2022-08-04T02:59:57.264Z,0.40
2022-08-04T03:02:48.138Z,0.10
2022-08-04T03:05:25.249Z,0.30
2022-08-04T03:08:19.684Z,0.30
2022-08-04T03:11:29.121Z,0.20
2022-08-04T03:14:44.862Z,0.32
2022-08-04T03:18:00.245Z,0.10
2022-08-04T03:21:08.424Z,0.20
2022-08-04T03:24:22.149Z,0.30
2022-08-04T03:27:10.235Z,0.50
2022-08-04T03:30:06.643Z,0.25
2022-08-04T03:33:11.840Z,0.70
2022-08-04T03:36:20.727Z,0.45
2022-08-04T03:39:17.483Z,0.40
2022-08-04T03:42:32.258Z,0.60
2022-08-04T03:45:38.187Z,0.90
2022-08-04T03:48:43.941Z,1.00
2022-08-04T03:51:43.004Z,1.23
2022-08-04T03:54:42.768Z,0.77
2022-08-04T03:57:43.994Z,1.40
2022-08-04T04:00:17.132Z,0.90
2022-08-04T04:03:22.939Z,2.35
2022-08-04T04:06:33.781Z,1.77
2022-08-04T04:09:33.997Z,1.60
2022-08-04T04:12:37.164Z,1.45
2022-08-04T04:15:26.009Z,1.38
2022-08-04T04:18:16.336Z,1.48
2022-08-04T04:21:16.783Z,2.08
2022-08-04T04:24:15.225Z,1.88
2022-08-04T04:27:00.171Z,1.60
2022-08-04T04:29:55.209Z,1.25
2022-08-04T04:32:30.967Z,1.75
2022-08-04T04:35:22.594Z,2.10
2022-08-04T04:38:28.917Z,1.77
2022-08-04T04:41:08.698Z,1.48
2022-08-04T04:44:09.745Z,1.58
2022-08-04T04:46:46.273Z,1.73
2022-08-04T04:49:25.680Z,1.35
2022-08-04T04:52:03.758Z,1.70
2022-08-04T04:54:41.015Z,1.70
2022-08-04T04:57:18.156Z,1.58
2022-08-04T04:59:56.626Z,1.65
2022-08-04T05:02:57.517Z,1.90
2022-08-04T05:06:00.721Z,2.08
2022-08-04T05:08:48.987Z,1.60
2022-08-04T05:11:52.019Z,1.77
2022-08-04T05:14:36.571Z,2.05
2022-08-04T05:17:22.516Z,1.65
2022-08-04T05:20:01.698Z,1.65
2022-08-04T05:22:38.416Z,1.48
2022-08-04T05:25:17.218Z,1.98
2022-08-04T05:27:53.512Z,2.00
2022-08-04T05:30:26.353Z,1.92
2022-08-04T05:33:06.850Z,2.13
2022-08-04T05:35:53.984Z,2.28
2022-08-04T05:38:38.897Z,2.35
2022-08-04T05:41:12.327Z,1.80
2022-08-04T05:43:46.541Z,2.45
2022-08-04T05:46:19.497Z,1.98
2022-08-04T05:48:53.306Z,1.95
2022-08-04T05:51:25.550Z,2.22
2022-08-04T05:53:57.277Z,1.92
2022-08-04T05:56:29.393Z,2.25
2022-08-04T05:59:00.777Z,2.13
2022-08-04T06:01:32.760Z,1.92
2022-08-04T06:04:28.467Z,2.03
2022-08-04T06:06:59.377Z,2.20
2022-08-04T06:09:30.409Z,1.80
2022-08-04T06:12:05.644Z,1.98
2022-08-04T06:14:41.039Z,2.20
2022-08-04T06:18:33.465Z,1.80
2022-08-04T06:20:20.080Z,2.42
2022-08-04T06:22:57.392Z,1.67
2022-08-04T06:25:31.304Z,1.80
2022-08-04T06:28:03.839Z,2.10
2022-08-04T06:30:35.847Z,2.03
2022-08-04T06:33:14.200Z,1.95
2022-08-04T06:35:49.011Z,1.90
2022-08-04T06:38:21.183Z,2.28
2022-08-04T06:40:52.526Z,1.70
2022-08-04T06:43:24.163Z,2.30
2022-08-04T06:45:59.056Z,1.83
2022-08-04T06:48:33.207Z,3.00
2022-08-04T06:51:27.841Z,1.83
2022-08-04T06:53:58.670Z,2.00
2022-08-04T06:56:30.392Z,2.03
2022-08-04T06:59:04.202Z,2.90
2022-08-04T07:01:35.692Z,2.22
2022-08-04T07:04:07.480Z,2.08
2022-08-04T07:06:41.146Z,4.18
2022-08-04T07:09:12.290Z,2.05
2022-08-04T07:11:44.612Z,1.83
2022-08-04T07:14:16.306Z,1.80
2022-08-04T07:16:49.220Z,2.75
2022-08-04T07:19:20.062Z,2.10
2022-08-04T07:22:16.408Z,2.40
2022-08-04T07:24:45.991Z,1.83
2022-08-04T07:27:47.869Z,2.67
2022-08-04T07:30:11.996Z,2.50
2022-08-04T07:32:46.404Z,2.00
2022-08-04T07:36:09.894Z,2.10
2022-08-04T07:38:12.224Z,1.90
2022-08-04T07:40:47.702Z,1.58
2022-08-04T07:43:19.720Z,1.83
2022-08-04T07:45:50.870Z,1.80
2022-08-04T07:48:23.472Z,1.70
2022-08-04T07:50:55.322Z,1.67
2022-08-04T07:53:52.848Z,1.38
2022-08-04T07:56:21.482Z,2.35
2022-08-04T07:58:52.312Z,1.52
2022-08-04T08:01:23.311Z,1.80
2022-08-04T08:03:55.865Z,2.08
2022-08-04T08:06:31.592Z,1.45
2022-08-04T08:09:13.433Z,1.77
2022-08-04T08:12:37.804Z,1.75
2022-08-04T08:14:37.542Z,1.42
2022-08-04T08:17:09.184Z,2.08
2022-08-04T08:19:40.122Z,1.65
2022-08-04T08:22:11.018Z,1.40
2022-08-04T08:24:44.904Z,1.52
2022-08-04T08:27:15.753Z,1.55
2022-08-04T08:29:46.784Z,1.55
2022-08-04T08:32:18.036Z,1.50
2022-08-04T08:34:49.757Z,1.60
2022-08-04T08:37:28.837Z,1.95
2022-08-04T08:40:39.994Z,1.33
2022-08-04T08:44:05.869Z,1.90
2022-08-04T08:46:55.769Z,1.90
2022-08-04T08:50:03.240Z,1.30
2022-08-04T08:53:02.337Z,2.00
2022-08-04T08:55:55.794Z,1.70
2022-08-04T08:58:45.699Z,1.30
2022-08-04T09:01:29.550Z,1.50
2022-08-04T09:04:40.164Z,1.75
2022-08-04T09:07:28.516Z,1.40
2022-08-04T09:10:12.110Z,1.35
2022-08-04T09:12:54.890Z,1.83
2022-08-04T09:15:36.583Z,1.23
2022-08-04T09:18:16.757Z,0.95
2022-08-04T09:20:51.764Z,1.20
2022-08-04T09:23:31.735Z,1.02
2022-08-04T09:26:11.968Z,1.40
2022-08-04T09:29:03.482Z,1.50
2022-08-04T09:31:52.913Z,1.13
2022-08-04T09:34:42.397Z,1.27
2022-08-04T09:37:25.393Z,1.40
2022-08-04T09:40:06.513Z,1.00
2022-08-04T09:42:53.291Z,1.10
2022-08-04T09:45:43.079Z,1.02
2022-08-04T09:48:20.629Z,1.05
2022-08-04T09:50:58.374Z,1.05
2022-08-04T09:53:42.328Z,0.98
2022-08-04T09:56:23.717Z,1.30
2022-08-04T09:59:04.730Z,0.80
2022-08-04T10:01:40.132Z,0.90
2022-08-04T10:04:15.322Z,1.30
2022-08-04T10:07:05.843Z,1.20
2022-08-04T10:09:53.239Z,1.00
2022-08-04T10:12:47.502Z,1.35
2022-08-04T10:15:22.000Z,1.38
2022-08-04T10:18:08.393Z,1.00
2022-08-04T10:21:10.321Z,1.25
2022-08-04T10:24:00.204Z,1.08
2022-08-04T10:26:53.154Z,0.77
2022-08-04T10:29:33.872Z,0.90
2022-08-04T10:32:12.726Z,0.90
2022-08-04T10:34:51.685Z,1.02
2022-08-04T10:38:00.900Z,1.20
2022-08-04T10:40:35.907Z,1.00
2022-08-04T10:43:22.135Z,0.98
2022-08-04T10:45:59.132Z,1.33
2022-08-04T10:48:41.061Z,0.90
2022-08-04T10:51:26.934Z,1.05
2022-08-04T10:54:03.012Z,0.80
2022-08-04T10:56:42.055Z,0.82
2022-08-04T10:59:19.348Z,1.25
2022-08-04T11:02:02.222Z,1.00
2022-08-04T11:04:44.423Z,0.90
2022-08-04T11:07:19.981Z,0.88
2022-08-04T11:09:51.517Z,0.77
2022-08-04T11:12:27.589Z,1.23
2022-08-04T11:15:04.470Z,0.90
2022-08-04T11:17:41.192Z,1.13
2022-08-04T11:23:12.278Z,0.98
2022-08-04T11:25:53.317Z,1.17
2022-08-04T11:28:36.817Z,0.80
2022-08-04T11:31:10.793Z,1.25
2022-08-04T11:33:48.993Z,0.90
2022-08-04T11:36:25.846Z,1.00
2022-08-04T11:39:11.600Z,0.80
2022-08-04T11:41:51.546Z,0.80
2022-08-04T11:44:31.319Z,0.80
2022-08-04T11:47:07.163Z,0.93
2022-08-04T11:49:56.145Z,0.80
2022-08-04T11:52:31.675Z,0.70
2022-08-04T11:55:08.131Z,1.10
2022-08-04T11:57:39.444Z,0.75
2022-08-04T12:00:13.427Z,0.90
2022-08-04T12:03:18.565Z,0.77
2022-08-04T12:06:01.705Z,0.73
2022-08-04T12:08:49.992Z,0.95
2022-08-04T12:11:31.443Z,0.70
2022-08-04T12:14:13.157Z,0.73
2022-08-04T12:16:51.696Z,0.95
2022-08-04T12:19:30.935Z,0.70
2022-08-04T12:24:47.989Z,0.60
2022-08-04T12:27:30.408Z,1.30
2022-08-04T12:30:57.502Z,0.95
2022-08-04T12:33:00.754Z,0.50
2022-08-04T12:35:37.440Z,0.70
2022-08-04T12:38:32.478Z,0.93
2022-08-04T12:41:05.750Z,0.50
2022-08-04T12:43:42.267Z,0.80
2022-08-04T12:46:16.246Z,0.82
2022-08-04T12:48:50.163Z,0.80
2022-08-04T12:52:06.617Z,0.68
2022-08-04T12:54:14.977Z,0.93
2022-08-04T12:56:49.038Z,1.10
2022-08-04T12:59:23.269Z,0.98
2022-08-04T13:02:09.748Z,0.80
2022-08-04T13:04:50.361Z,0.93
2022-08-04T13:07:25.493Z,1.33
2022-08-04T13:09:56.754Z,1.15
2022-08-04T13:12:32.662Z,0.80
2022-08-04T13:15:17.715Z,0.90
2022-08-04T13:17:57.133Z,0.70
2022-08-04T13:20:32.820Z,0.80
2022-08-04T13:23:09.195Z,0.80
2022-08-04T13:26:42.585Z,0.85
2022-08-04T13:28:37.554Z,0.60
2022-08-04T13:31:20.066Z,0.65
2022-08-04T13:33:53.526Z,0.60
2022-08-04T13:36:29.537Z,0.80
2022-08-04T13:39:05.448Z,0.77
2022-08-04T13:41:37.328Z,0.83
2022-08-04T13:44:17.631Z,0.88
2022-08-04T13:46:56.682Z,0.70
2022-08-04T13:49:43.173Z,0.70
2022-08-04T13:52:18.827Z,0.60
2022-08-04T13:54:53.642Z,0.80
2022-08-04T13:57:33.693Z,0.70
2022-08-04T14:00:09.210Z,1.02
2022-08-04T14:03:03.280Z,0.82
2022-08-04T14:05:59.241Z,0.90
2022-08-04T14:08:31.587Z,0.77
2022-08-04T14:13:41.499Z,0.90
2022-08-04T14:16:21.020Z,1.25
2022-08-04T14:19:02.673Z,1.17
2022-08-04T14:21:39.842Z,0.75
2022-08-04T14:24:11.065Z,1.17
2022-08-04T14:26:41.871Z,1.10
2022-08-04T14:29:27.553Z,1.20
2022-08-04T14:32:13.824Z,1.38
2022-08-04T14:34:49.021Z,1.00
2022-08-04T14:37:23.038Z,1.15
2022-08-04T14:40:17.495Z,1.40
2022-08-04T14:42:55.429Z,1.02
2022-08-04T14:45:35.926Z,1.15
2022-08-04T14:48:10.829Z,1.13
2022-08-04T14:50:46.048Z,0.82
2022-08-04T14:53:19.496Z,1.05
2022-08-04T14:55:52.738Z,1.20
2022-08-04T14:58:34.001Z,0.90
2022-08-04T15:01:17.007Z,1.30
2022-08-04T15:03:52.162Z,0.90
2022-08-04T15:06:29.137Z,1.00
2022-08-04T15:09:02.520Z,0.95
2022-08-04T15:11:33.428Z,1.33
2022-08-04T15:14:36.212Z,1.00
2022-08-04T15:17:01.708Z,1.08
2022-08-04T15:19:34.496Z,1.10
2022-08-04T15:22:17.232Z,1.20
2022-08-04T15:24:54.976Z,1.25
2022-08-04T15:27:29.795Z,1.02
2022-08-04T15:30:03.493Z,1.10
2022-08-04T15:32:36.015Z,1.00
2022-08-04T15:35:09.929Z,2.03
2022-08-04T15:37:53.005Z,1.15
2022-08-04T15:40:33.834Z,1.40
2022-08-04T15:43:14.743Z,0.90
2022-08-04T15:46:04.232Z,1.40
2022-08-04T15:48:44.684Z,1.05
2022-08-04T15:51:17.038Z,1.30
2022-08-04T15:54:28.135Z,1.02
2022-08-04T15:57:06.574Z,1.30
2022-08-04T16:00:07.715Z,1.02
2022-08-04T16:02:46.417Z,1.30
2022-08-04T16:05:34.705Z,1.23
2022-08-04T16:08:19.386Z,0.95
2022-08-04T16:10:52.769Z,1.10
2022-08-04T16:13:26.973Z,1.38
2022-08-04T16:16:03.723Z,1.08
2022-08-04T16:18:45.163Z,1.10
2022-08-04T16:21:28.272Z,1.42
2022-08-04T16:24:24.036Z,1.00
2022-08-04T16:26:57.186Z,1.63
2022-08-04T16:29:38.646Z,1.20
2022-08-04T16:32:17.509Z,1.27
2022-08-04T16:34:55.296Z,1.10
2022-08-04T16:37:32.429Z,1.42
2022-08-04T16:40:36.355Z,1.13
2022-08-04T16:43:13.748Z,1.23
2022-08-04T16:45:59.114Z,0.95
2022-08-04T16:48:31.611Z,0.60
2022-08-04T16:51:05.985Z,0.90
2022-08-04T16:54:04.285Z,1.10
2022-08-04T16:56:35.621Z,1.33
2022-08-04T16:59:12.097Z,1.88
2022-08-04T17:01:50.681Z,1.13
2022-08-04T17:04:30.861Z,0.85
2022-08-04T17:07:04.287Z,0.95
2022-08-04T17:09:35.784Z,0.65
2022-08-04T17:12:07.063Z,0.82
2022-08-04T17:14:37.997Z,0.90
2022-08-04T17:17:11.393Z,0.65
2022-08-04T17:19:42.155Z,0.80
2022-08-04T17:22:12.992Z,0.93
2022-08-04T17:24:44.330Z,0.70
2022-08-04T17:28:05.756Z,1.00
2022-08-04T17:30:06.145Z,0.98
2022-08-04T17:32:41.892Z,0.75
2022-08-04T17:35:13.000Z,0.95
2022-08-04T17:37:52.764Z,1.10
2022-08-04T17:40:25.664Z,0.80
2022-08-04T17:44:01.209Z,1.08
2022-08-04T17:46:37.164Z,0.60
2022-08-04T17:49:17.042Z,1.17
2022-08-04T17:52:06.418Z,1.02
2022-08-04T17:54:43.604Z,0.88
2022-08-04T17:57:21.018Z,0.80
2022-08-04T17:59:59.346Z,0.70
2022-08-04T18:02:34.499Z,0.75
2022-08-04T18:05:11.518Z,0.60
2022-08-04T18:08:35.317Z,0.80
2022-08-04T18:10:52.302Z,1.05
2022-08-04T18:13:28.366Z,1.40
2022-08-04T18:16:14.630Z,0.80
2022-08-04T18:19:11.022Z,0.73
2022-08-04T18:22:00.577Z,0.70
2022-08-04T18:24:35.230Z,0.55
2022-08-04T18:27:26.709Z,0.68
2022-08-04T18:30:32.572Z,0.88
2022-08-04T18:36:35.531Z,0.60
2022-08-04T18:42:01.028Z,0.95
2022-08-04T18:44:27.499Z,0.85
2022-08-04T18:47:19.008Z,0.88
2022-08-04T18:50:40.262Z,0.90
2022-08-04T18:52:45.386Z,0.70
2022-08-04T18:55:56.772Z,0.85
2022-08-04T18:58:11.842Z,0.90
2022-08-04T19:00:46.127Z,0.70
2022-08-04T19:03:22.870Z,0.95
2022-08-04T19:05:54.453Z,0.90
2022-08-04T19:08:34.372Z,1.02
2022-08-04T19:14:00.073Z,1.00
2022-08-04T19:16:34.029Z,0.95
2022-08-04T19:19:08.202Z,1.08
2022-08-04T19:22:00.107Z,1.00
2022-08-04T19:24:34.375Z,0.90
2022-08-04T19:27:09.842Z,1.20
2022-08-04T19:29:43.071Z,1.33
2022-08-04T19:32:16.472Z,0.85
2022-08-04T19:34:48.650Z,0.90
2022-08-04T19:37:56.319Z,0.95
2022-08-04T19:40:13.528Z,0.80
2022-08-04T19:42:51.336Z,1.10
2022-08-04T19:45:40.132Z,0.98
2022-08-04T19:48:19.038Z,1.23
2022-08-04T19:50:51.433Z,0.77
2022-08-04T19:53:36.136Z,1.40
2022-08-04T19:56:08.878Z,0.93
2022-08-04T19:58:42.225Z,0.80
2022-08-04T20:01:33.489Z,1.00
2022-08-04T20:04:11.235Z,1.10
2022-08-04T20:06:42.689Z,0.77
2022-08-04T20:09:25.773Z,0.95
2022-08-04T20:11:58.599Z,1.23
2022-08-04T20:14:33.394Z,0.95
2022-08-04T20:17:10.629Z,1.63
2022-08-04T20:19:41.723Z,1.05
2022-08-04T20:22:52.148Z,1.20
2022-08-04T20:25:35.545Z,1.08
2022-08-04T20:28:05.163Z,1.10
2022-08-04T20:30:38.852Z,0.80
2022-08-04T20:33:10.293Z,1.13
2022-08-04T20:36:02.109Z,0.77
2022-08-04T20:38:35.804Z,0.80
2022-08-04T20:41:06.921Z,0.70
2022-08-04T20:43:38.027Z,0.50
2022-08-04T20:46:18.125Z,0.80
2022-08-04T20:48:56.373Z,0.88
2022-08-04T20:51:32.161Z,0.55
2022-08-04T20:54:16.687Z,0.68
2022-08-04T20:56:50.945Z,1.02
2022-08-04T20:59:22.939Z,1.13
2022-08-04T21:01:57.836Z,0.77
2022-08-04T21:04:35.983Z,0.68
2022-08-04T21:07:25.287Z,0.60
2022-08-04T21:09:56.344Z,0.50
2022-08-04T21:12:29.115Z,0.85
2022-08-04T21:15:13.425Z,0.98
2022-08-04T21:17:57.600Z,0.80
2022-08-04T21:20:35.317Z,0.80
2022-08-04T21:23:07.864Z,1.00
2022-08-04T21:25:42.681Z,0.77
2022-08-04T21:28:20.310Z,0.77
2022-08-04T21:30:54.977Z,0.70
2022-08-04T21:33:50.695Z,0.82
2022-08-04T21:36:21.494Z,0.80
2022-08-04T21:38:52.768Z,0.50
2022-08-04T21:41:27.174Z,1.00
2022-08-04T21:43:59.289Z,1.25
2022-08-04T21:46:31.360Z,0.70
2022-08-04T21:49:09.292Z,0.65
2022-08-04T21:51:57.304Z,0.82
2022-08-04T21:54:30.338Z,0.77
2022-08-04T21:57:03.443Z,0.63
2022-08-04T21:59:34.522Z,0.85
2022-08-04T22:02:16.088Z,1.00
2022-08-04T22:04:49.821Z,0.55
2022-08-04T22:07:23.232Z,0.70
2022-08-04T22:10:00.532Z,0.82
2022-08-04T22:12:34.271Z,0.80
2022-08-04T22:15:22.942Z,0.88
2022-08-04T22:18:04.610Z,0.88
2022-08-04T22:20:38.285Z,0.40
2022-08-04T22:23:16.920Z,0.43
2022-08-04T22:25:55.694Z,0.60
2022-08-04T22:28:28.076Z,1.00
2022-08-04T22:31:00.298Z,0.70
2022-08-04T22:33:55.485Z,0.77
2022-08-04T22:36:29.604Z,0.50
2022-08-04T22:39:07.377Z,0.70
2022-08-04T22:41:48.543Z,1.13
2022-08-04T22:44:20.751Z,0.70
2022-08-04T22:46:51.545Z,0.88
2022-08-04T22:49:25.267Z,0.60
2022-08-04T22:52:09.563Z,0.95
2022-08-04T22:54:42.010Z,0.70
2022-08-04T22:57:12.837Z,0.75
2022-08-04T22:59:44.587Z,0.60
2022-08-04T23:02:19.670Z,0.60
2022-08-04T23:04:54.063Z,0.80
2022-08-04T23:07:37.983Z,0.80
2022-08-04T23:10:18.664Z,0.70
2022-08-04T23:12:55.379Z,0.82
2022-08-04T23:15:27.612Z,0.60
2022-08-04T23:18:04.935Z,0.50
2022-08-04T23:20:39.569Z,1.00
2022-08-04T23:23:15.239Z,0.50
2022-08-04T23:26:07.305Z,0.70
2022-08-04T23:28:39.327Z,0.73
2022-08-04T23:31:10.611Z,0.60
2022-08-04T23:33:51.468Z,0.77
2022-08-04T23:36:29.429Z,0.95
2022-08-04T23:39:06.586Z,0.70
2022-08-04T23:41:55.359Z,0.90
2022-08-04T23:44:28.562Z,0.85
2022-08-04T23:47:03.491Z,0.77
2022-08-04T23:49:43.492Z,0.75
2022-08-04T23:52:28.065Z,0.50
2022-08-04T23:55:07.577Z,0.80
2022-08-04T23:58:06.273Z,0.60
